This is the latest recevied weather packets stored in our database for station/object KX4KY-13. If no packets are shown the sender has not sent any weather packets the latest 10 day(s).
| Time | Temp. | Humidity | Pressure | Rain* | Wind** | Luminosity | Snow |
|---|---|---|---|---|---|---|---|
| 1777086016 | 17.22° C | 67% | 1011.8 hPa | 0 mm | - | 0 W/m² | - |
| 1777079439 | 18.33° C | 60% | 1011.4 hPa | 0 mm | - | 0 W/m² | - |
| 1777078838 | 18.33° C | 59% | 1011.4 hPa | 0 mm | - | 0 W/m² | - |
| 1777074619 | 19.44° C | 55% | 1011.1 hPa | 0 mm | - | 11 W/m² | - |
| 1777069217 | 21.11° C | 53% | 1011.3 hPa | 0 mm | - | 55 W/m² | - |
| 1777068617 | 21.11° C | 53% | 1011.2 hPa | 0 mm | - | 59 W/m² | - |
| 1777067438 | 21.67° C | 52% | 1011.4 hPa | 0 mm | - | 79 W/m² | - |
| 1777065018 | 22.22° C | 49% | 1011.3 hPa | 0 mm | - | 112 W/m² | - |
| 1777062616 | 22.78° C | 48% | 1011.3 hPa | 0 mm | - | 540 W/m² | - |
| 1777061436 | 23.33° C | 43% | 1011.4 hPa | 0 mm | - | 473 W/m² | - |
| 1777060816 | 23.89° C | 44% | 1011.9 hPa | 0 mm | - | 178 W/m² | - |
| 1777058417 | 24.44° C | 40% | 1012 hPa | 0 mm | - | 744 W/m² | - |
| 1777054219 | 25° C | 41% | 1013.1 hPa | 0 mm | - | 373 W/m² | - |
| 1777053040 | 24.44° C | 41% | 1012.9 hPa | 0 mm | - | 1020 W/m² | - |
| 1777051838 | 24.44° C | 40% | 1013.2 hPa | 0 mm | - | 953 W/m² | - |
| 1777048819 | 25° C | 40% | 1013.8 hPa | 0 mm | - | 913 W/m² | - |
| 1777046416 | 23.89° C | 41% | 1014.4 hPa | 0 mm | - | 697 W/m² | - |
| 1777044018 | 23.89° C | 43% | 1014.5 hPa | 0 mm | - | 805 W/m² | - |
| 1777043439 | 24.44° C | 42% | 1014.5 hPa | 0 mm | - | 774 W/m² | - |
| 1777041638 | 23.89° C | 42% | 1014.3 hPa | 0 mm | - | 653 W/m² | - |
| 1777038618 | 22.22° C | 47% | 1014.2 hPa | 0 mm | - | 507 W/m² | - |
| 1777038019 | 22.22° C | 46% | 1014.2 hPa | 0 mm | - | 473 W/m² | - |
| 1777035636 | 21.11° C | 48% | 1014.3 hPa | 0 mm | - | 329 W/m² | - |
| 1777030219 | 16.67° C | 58% | 1014.4 hPa | 0 mm | - | 47 W/m² | - |
| 1777026622 | 15.56° C | 60% | 1014.4 hPa | 0 mm | - | 0 W/m² | - |
* Rain latest hour (hover to see other rain measurements)
** Current wind speed in m/s (hover to see current wind gust speed)